createdAt,value
2023-01-10T00:02:59.427Z,10.97
2023-01-10T00:08:03.791Z,12.16
2023-01-10T00:13:25.113Z,12.77
2023-01-10T00:18:28.137Z,12.11
2023-01-10T00:23:31.328Z,9.84
2023-01-10T00:28:39.307Z,8.38
2023-01-10T00:33:42.864Z,8.50
2023-01-10T00:38:45.980Z,10.81
2023-01-10T00:43:58.127Z,12.03
2023-01-10T00:49:01.300Z,12.69
2023-01-10T00:54:04.926Z,13.10
2023-01-10T00:59:08.852Z,12.50
2023-01-10T01:04:11.954Z,10.29
2023-01-10T01:09:15.470Z,9.19
2023-01-10T01:14:18.573Z,10.89
2023-01-10T01:19:21.676Z,11.93
2023-01-10T01:24:25.103Z,12.39
2023-01-10T01:29:38.515Z,12.83
2023-01-10T01:34:45.742Z,12.15
2023-01-10T01:39:48.845Z,9.94
2023-01-10T01:45:24.616Z,8.52
2023-01-10T01:50:49.436Z,8.83
2023-01-10T01:55:57.777Z,10.92
2023-01-10T02:01:01.102Z,11.94
2023-01-10T02:06:04.690Z,12.47
2023-01-10T02:11:11.815Z,12.93
2023-01-10T02:16:15.916Z,12.40
2023-01-10T02:21:58.459Z,10.25
2023-01-10T02:28:02.418Z,8.74
2023-01-10T02:34:13.379Z,9.20
2023-01-10T02:39:47.646Z,11.58
2023-01-10T02:45:14.735Z,12.58
2023-01-10T02:50:44.923Z,13.20
2023-01-10T02:56:29.858Z,12.57
2023-01-10T03:02:04.202Z,10.26
2023-01-10T03:07:29.889Z,8.79
2023-01-10T03:12:46.103Z,7.81
2023-01-10T03:17:58.224Z,8.29
2023-01-10T03:23:05.797Z,10.59
2023-01-10T03:28:46.501Z,11.93
2023-01-10T03:33:50.558Z,12.87
2023-01-10T03:39:12.296Z,12.60
2023-01-10T03:44:45.016Z,10.39
2023-01-10T03:49:54.975Z,8.78
2023-01-10T03:55:00.134Z,7.83
2023-01-10T04:00:04.793Z,8.11
2023-01-10T04:05:09.100Z,10.37
2023-01-10T04:10:12.302Z,11.71
2023-01-10T04:15:15.298Z,12.52
2023-01-10T04:20:24.607Z,12.22
2023-01-10T04:25:41.699Z,10.12
2023-01-10T04:30:45.613Z,8.69
2023-01-10T04:35:52.915Z,7.72
2023-01-10T04:40:57.373Z,7.95
2023-01-10T04:46:00.378Z,10.16
2023-01-10T04:51:04.895Z,11.42
2023-01-10T04:56:11.743Z,12.03
2023-01-10T05:01:21.743Z,12.25
2023-01-10T05:06:25.590Z,11.48
2023-01-10T05:11:28.810Z,9.02
2023-01-10T05:16:32.142Z,8.37
2023-01-10T05:21:35.345Z,10.21
2023-01-10T05:26:38.412Z,11.31
2023-01-10T05:31:42.449Z,12.07
2023-01-10T05:36:45.547Z,11.70
2023-01-10T05:41:48.959Z,9.61
2023-01-10T05:46:52.068Z,8.23
2023-01-10T05:51:55.278Z,7.31
2023-01-10T05:56:58.494Z,7.61
2023-01-10T06:02:01.604Z,10.53
2023-01-10T06:07:04.706Z,12.26
2023-01-10T06:12:07.924Z,11.96
2023-01-10T06:17:12.039Z,9.58
2023-01-10T06:22:15.055Z,7.98
2023-01-10T06:27:18.460Z,6.97
2023-01-10T06:32:21.461Z,7.39
2023-01-10T06:37:24.503Z,10.43
2023-01-10T06:42:27.773Z,11.59
2023-01-10T06:47:30.795Z,12.07
2023-01-10T06:52:34.297Z,11.41
2023-01-10T06:57:38.690Z,9.13
2023-01-10T07:02:41.937Z,7.60
2023-01-10T07:07:45.249Z,6.61
2023-01-10T07:12:48.379Z,6.84
2023-01-10T07:17:51.564Z,9.28
2023-01-10T07:22:56.900Z,10.57
2023-01-10T07:28:00.274Z,11.48
2023-01-10T07:33:04.231Z,12.20
2023-01-10T07:38:09.193Z,11.76
2023-01-10T07:43:12.319Z,9.51
2023-01-10T07:48:15.423Z,7.96
2023-01-10T07:53:18.449Z,6.91
2023-01-10T07:58:21.737Z,7.20
2023-01-10T08:03:25.222Z,9.65
2023-01-10T08:08:29.424Z,11.05
2023-01-10T08:13:33.321Z,11.85
2023-01-10T08:18:37.030Z,11.49
2023-01-10T08:23:40.146Z,9.32
2023-01-10T08:28:43.241Z,7.88
2023-01-10T08:33:46.354Z,6.90
2023-01-10T08:38:51.161Z,7.24
2023-01-10T08:43:54.302Z,9.62
2023-01-10T08:48:57.876Z,10.93
2023-01-10T08:54:01.056Z,11.77
2023-01-10T08:59:04.166Z,12.30
2023-01-10T09:04:07.243Z,11.57
2023-01-10T09:09:10.655Z,9.40
2023-01-10T09:14:13.765Z,8.02
2023-01-10T09:19:16.872Z,7.12
2023-01-10T09:24:20.285Z,7.56
2023-01-10T09:29:23.588Z,9.82
2023-01-10T09:34:26.799Z,11.02
2023-01-10T09:39:29.939Z,11.70
2023-01-10T09:45:10.280Z,12.30
2023-01-10T09:50:24.252Z,11.15
2023-01-10T09:55:36.183Z,9.11
2023-01-10T10:00:54.187Z,7.90
2023-01-10T10:06:10.564Z,8.06
2023-01-10T10:11:41.079Z,10.23
2023-01-10T10:17:20.991Z,11.42
2023-01-10T10:23:12.288Z,11.95
2023-01-10T10:28:24.410Z,12.48
2023-01-10T10:34:02.137Z,12.01
2023-01-10T10:39:11.282Z,9.72
2023-01-10T10:44:36.097Z,8.38
2023-01-10T10:49:49.554Z,7.48
2023-01-10T10:54:54.526Z,7.97
2023-01-10T11:00:00.259Z,10.18
2023-01-10T11:05:14.728Z,11.56
2023-01-10T11:10:38.509Z,12.53
2023-01-10T11:15:46.813Z,11.88
2023-01-10T11:21:09.086Z,9.82
2023-01-10T11:26:24.183Z,8.53
2023-01-10T11:31:32.457Z,8.63
2023-01-10T11:37:17.323Z,10.62
2023-01-10T11:42:31.268Z,11.81
2023-01-10T11:47:38.078Z,12.46
2023-01-10T11:52:46.826Z,12.04
2023-01-10T11:58:13.264Z,9.95
2023-01-10T12:03:29.697Z,8.39
2023-01-10T12:08:36.903Z,8.52
2023-01-10T12:13:48.471Z,10.49
2023-01-10T12:19:05.020Z,11.46
2023-01-10T12:24:34.564Z,12.01
2023-01-10T12:29:49.507Z,12.61
2023-01-10T12:35:07.488Z,11.68
2023-01-10T12:40:36.976Z,9.48
2023-01-10T12:45:53.761Z,8.18
2023-01-10T12:51:06.440Z,7.50
2023-01-10T12:56:16.060Z,8.38
2023-01-10T13:01:30.136Z,11.08
2023-01-10T13:06:38.595Z,12.13
2023-01-10T13:12:15.042Z,12.66
2023-01-10T13:17:33.080Z,11.98
2023-01-10T13:22:37.056Z,10.00
2023-01-10T13:27:40.272Z,8.88
2023-01-10T13:32:43.388Z,8.13
2023-01-10T13:37:55.710Z,7.55
2023-01-10T13:43:37.021Z,8.14
2023-01-10T13:48:40.211Z,10.88
2023-01-10T13:53:53.483Z,12.25
2023-01-10T13:59:17.040Z,12.12
2023-01-10T14:04:27.749Z,10.05
2023-01-10T14:09:44.754Z,8.78
2023-01-10T14:15:04.144Z,7.87
2023-01-10T14:20:13.403Z,7.20
2023-01-10T14:25:22.242Z,7.68
2023-01-10T14:30:35.684Z,10.09
2023-01-10T14:35:45.381Z,11.36
2023-01-10T14:40:53.169Z,12.42
2023-01-10T14:46:11.168Z,11.95
2023-01-10T14:51:25.178Z,9.73
2023-01-10T14:56:41.483Z,8.22
2023-01-10T15:01:49.810Z,7.20
2023-01-10T15:07:05.630Z,7.45
2023-01-10T15:12:15.821Z,9.81
2023-01-10T15:17:22.185Z,11.04
2023-01-10T15:22:35.569Z,11.75
2023-01-10T15:27:47.644Z,11.24
2023-01-10T15:32:55.392Z,8.99
2023-01-10T15:38:09.215Z,7.55
2023-01-10T15:43:18.471Z,6.51
2023-01-10T15:48:30.512Z,6.81
2023-01-10T15:54:00.822Z,8.90
2023-01-10T15:59:06.164Z,10.14
2023-01-10T16:04:15.322Z,10.94
2023-01-10T16:09:22.849Z,11.65
2023-01-10T16:14:26.312Z,12.12
2023-01-10T16:19:29.573Z,10.81
2023-01-10T16:24:36.433Z,8.73
2023-01-10T16:29:39.685Z,7.38
2023-01-10T16:34:42.901Z,6.52
2023-01-10T16:39:45.988Z,6.92
2023-01-10T16:44:49.194Z,9.37
2023-01-10T16:49:52.502Z,10.68
2023-01-10T16:54:55.512Z,11.49
2023-01-10T16:59:58.638Z,11.93
2023-01-10T17:05:02.134Z,11.28
2023-01-10T17:10:06.020Z,9.08
2023-01-10T17:15:14.580Z,7.65
2023-01-10T17:20:18.730Z,6.68
2023-01-10T17:25:21.824Z,6.85
2023-01-10T17:30:24.948Z,8.99
2023-01-10T17:35:29.199Z,10.33
2023-01-10T17:40:32.271Z,11.24
2023-01-10T17:45:43.190Z,11.89
2023-01-10T17:50:49.084Z,11.35
2023-01-10T17:55:52.992Z,9.08
2023-01-10T18:00:56.282Z,7.72
2023-01-10T18:05:59.682Z,9.02
2023-01-10T18:11:03.726Z,10.43
2023-01-10T18:16:07.131Z,11.01
2023-01-10T18:21:17.771Z,11.30
2023-01-10T18:26:21.138Z,10.62
2023-01-10T18:31:24.425Z,8.31
2023-01-10T18:36:27.538Z,6.87
2023-01-10T18:41:31.602Z,6.91
2023-01-10T18:46:34.922Z,8.94
2023-01-10T18:51:38.120Z,10.23
2023-01-10T18:56:41.290Z,11.05
2023-01-10T19:01:44.560Z,11.67
2023-01-10T19:06:47.817Z,11.25
2023-01-10T19:11:50.920Z,9.14
2023-01-10T19:16:54.132Z,7.70
2023-01-10T19:21:57.226Z,6.78
2023-01-10T19:27:00.445Z,6.99
2023-01-10T19:32:04.469Z,9.35
2023-01-10T19:37:07.899Z,10.71
2023-01-10T19:42:11.089Z,11.52
2023-01-10T19:47:15.953Z,12.16
2023-01-10T19:52:19.356Z,10.82
2023-01-10T19:57:22.569Z,8.94
2023-01-10T20:02:25.922Z,7.71
2023-01-10T20:07:30.123Z,6.80
2023-01-10T20:12:33.211Z,7.11
2023-01-10T20:17:38.069Z,9.35
2023-01-10T20:22:41.469Z,10.66
2023-01-10T20:27:44.575Z,11.48
2023-01-10T20:32:47.990Z,12.03
2023-01-10T20:37:51.095Z,11.49
2023-01-10T20:42:54.413Z,9.40
2023-01-10T20:47:57.619Z,7.97
2023-01-10T20:53:00.741Z,7.03
2023-01-10T20:58:05.855Z,7.29
2023-01-10T21:03:09.006Z,9.59
2023-01-10T21:08:12.293Z,10.95
2023-01-10T21:13:16.015Z,11.77
2023-01-10T21:18:19.438Z,12.37
2023-01-10T21:23:25.931Z,11.89
2023-01-10T21:28:29.220Z,9.67
2023-01-10T21:33:33.292Z,8.20
2023-01-10T21:38:36.658Z,7.19
2023-01-10T21:43:44.689Z,7.46
2023-01-10T21:48:48.519Z,9.81
2023-01-10T21:53:51.738Z,11.00
2023-01-10T21:58:54.927Z,11.54
2023-01-10T22:03:58.080Z,11.99
2023-01-10T22:09:01.242Z,12.36
2023-01-10T22:14:04.468Z,11.74
2023-01-10T22:19:07.875Z,9.55
2023-01-10T22:24:12.221Z,8.08
2023-01-10T22:29:16.444Z,7.05
2023-01-10T22:34:21.272Z,7.30
2023-01-10T22:39:25.007Z,9.59
2023-01-10T22:44:28.818Z,10.90
2023-01-10T22:49:31.927Z,11.71
2023-01-10T22:54:35.476Z,12.26
2023-01-10T22:59:53.111Z,11.78
2023-01-10T23:04:56.194Z,9.62
2023-01-10T23:09:59.845Z,8.28
2023-01-10T23:15:03.227Z,7.33
2023-01-10T23:20:07.973Z,7.50
2023-01-10T23:25:11.188Z,9.62
2023-01-10T23:30:14.888Z,10.96
2023-01-10T23:35:17.941Z,11.86
2023-01-10T23:40:21.278Z,12.45
2023-01-10T23:45:24.423Z,11.97
2023-01-10T23:50:27.529Z,9.77
2023-01-10T23:55:32.747Z,8.38
